sensor_id;sensor_type;location;lat;lon;timestamp;P1;durP1;ratioP1;P2;durP2;ratioP2
71106;SDS011;58763;47.982;11.516;2022-07-29T00:00:09;5.05;;;1.10;;
71106;SDS011;58763;47.982;11.516;2022-07-29T00:02:35;2.22;;;0.80;;
71106;SDS011;58763;47.982;11.516;2022-07-29T00:05:02;1.73;;;0.63;;
71106;SDS011;58763;47.982;11.516;2022-07-29T00:07:28;1.17;;;0.55;;
71106;SDS011;58763;47.982;11.516;2022-07-29T00:09:53;1.77;;;0.77;;
71106;SDS011;58763;47.982;11.516;2022-07-29T00:12:20;1.75;;;0.73;;
71106;SDS011;58763;47.982;11.516;2022-07-29T00:14:47;2.10;;;0.70;;
71106;SDS011;58763;47.982;11.516;2022-07-29T00:17:12;2.35;;;0.65;;
71106;SDS011;58763;47.982;11.516;2022-07-29T00:19:38;1.92;;;0.77;;
71106;SDS011;58763;47.982;11.516;2022-07-29T00:22:03;2.38;;;0.98;;
71106;SDS011;58763;47.982;11.516;2022-07-29T00:24:29;1.70;;;0.70;;
71106;SDS011;58763;47.982;11.516;2022-07-29T00:26:54;3.17;;;0.73;;
71106;SDS011;58763;47.982;11.516;2022-07-29T00:29:19;2.63;;;0.70;;
71106;SDS011;58763;47.982;11.516;2022-07-29T00:31:45;1.80;;;0.60;;
71106;SDS011;58763;47.982;11.516;2022-07-29T00:34:10;1.73;;;0.70;;
71106;SDS011;58763;47.982;11.516;2022-07-29T00:36:54;2.00;;;0.77;;
71106;SDS011;58763;47.982;11.516;2022-07-29T00:39:20;1.60;;;0.70;;
71106;SDS011;58763;47.982;11.516;2022-07-29T00:41:45;3.28;;;0.90;;
71106;SDS011;58763;47.982;11.516;2022-07-29T00:44:11;2.40;;;0.70;;
71106;SDS011;58763;47.982;11.516;2022-07-29T00:46:36;3.80;;;0.85;;
71106;SDS011;58763;47.982;11.516;2022-07-29T00:49:02;2.63;;;1.05;;
71106;SDS011;58763;47.982;11.516;2022-07-29T00:51:27;2.47;;;1.00;;
71106;SDS011;58763;47.982;11.516;2022-07-29T00:53:53;2.53;;;0.80;;
71106;SDS011;58763;47.982;11.516;2022-07-29T00:56:19;3.63;;;0.85;;
71106;SDS011;58763;47.982;11.516;2022-07-29T00:58:45;1.88;;;0.85;;
71106;SDS011;58763;47.982;11.516;2022-07-29T01:01:12;3.25;;;1.00;;
71106;SDS011;58763;47.982;11.516;2022-07-29T01:03:37;2.53;;;0.90;;
71106;SDS011;58763;47.982;11.516;2022-07-29T01:06:03;2.33;;;1.00;;
71106;SDS011;58763;47.982;11.516;2022-07-29T01:08:29;2.40;;;0.90;;
71106;SDS011;58763;47.982;11.516;2022-07-29T01:10:57;3.03;;;1.20;;
71106;SDS011;58763;47.982;11.516;2022-07-29T01:13:24;2.08;;;0.90;;
71106;SDS011;58763;47.982;11.516;2022-07-29T01:15:58;2.45;;;0.80;;
71106;SDS011;58763;47.982;11.516;2022-07-29T01:18:30;2.00;;;0.80;;
71106;SDS011;58763;47.982;11.516;2022-07-29T01:29:19;1.83;;;0.70;;
71106;SDS011;58763;47.982;11.516;2022-07-29T01:34:58;3.42;;;1.00;;
71106;SDS011;58763;47.982;11.516;2022-07-29T01:37:39;2.85;;;1.00;;
71106;SDS011;58763;47.982;11.516;2022-07-29T01:40:09;2.22;;;1.00;;
71106;SDS011;58763;47.982;11.516;2022-07-29T01:42:45;2.10;;;1.00;;
71106;SDS011;58763;47.982;11.516;2022-07-29T01:48:05;3.67;;;1.10;;
71106;SDS011;58763;47.982;11.516;2022-07-29T01:50:47;1.90;;;0.80;;
71106;SDS011;58763;47.982;11.516;2022-07-29T01:53:18;2.10;;;0.90;;
71106;SDS011;58763;47.982;11.516;2022-07-29T01:55:50;2.40;;;0.90;;
71106;SDS011;58763;47.982;11.516;2022-07-29T01:58:17;2.75;;;0.90;;
71106;SDS011;58763;47.982;11.516;2022-07-29T02:00:44;2.65;;;0.77;;
71106;SDS011;58763;47.982;11.516;2022-07-29T02:03:11;2.33;;;1.00;;
71106;SDS011;58763;47.982;11.516;2022-07-29T02:05:38;2.08;;;0.98;;
71106;SDS011;58763;47.982;11.516;2022-07-29T02:08:07;2.72;;;0.73;;
71106;SDS011;58763;47.982;11.516;2022-07-29T02:10:34;3.67;;;1.00;;
71106;SDS011;58763;47.982;11.516;2022-07-29T02:13:02;3.22;;;1.05;;
71106;SDS011;58763;47.982;11.516;2022-07-29T02:15:29;2.85;;;0.82;;
71106;SDS011;58763;47.982;11.516;2022-07-29T02:18:18;3.28;;;1.10;;
71106;SDS011;58763;47.982;11.516;2022-07-29T02:20:48;2.88;;;0.90;;
71106;SDS011;58763;47.982;11.516;2022-07-29T02:23:16;2.30;;;1.00;;
71106;SDS011;58763;47.982;11.516;2022-07-29T02:25:44;2.30;;;0.90;;
71106;SDS011;58763;47.982;11.516;2022-07-29T02:28:14;1.92;;;0.88;;
71106;SDS011;58763;47.982;11.516;2022-07-29T02:30:41;2.70;;;1.00;;
71106;SDS011;58763;47.982;11.516;2022-07-29T02:33:08;2.13;;;1.00;;
71106;SDS011;58763;47.982;11.516;2022-07-29T02:35:37;2.10;;;0.85;;
71106;SDS011;58763;47.982;11.516;2022-07-29T02:38:05;4.25;;;1.10;;
71106;SDS011;58763;47.982;11.516;2022-07-29T02:40:50;1.98;;;0.93;;
71106;SDS011;58763;47.982;11.516;2022-07-29T02:43:18;2.00;;;0.93;;
71106;SDS011;58763;47.982;11.516;2022-07-29T02:45:46;2.28;;;0.98;;
71106;SDS011;58763;47.982;11.516;2022-07-29T02:48:16;2.72;;;0.82;;
71106;SDS011;58763;47.982;11.516;2022-07-29T02:50:48;1.90;;;0.95;;
71106;SDS011;58763;47.982;11.516;2022-07-29T02:53:20;2.45;;;1.05;;
71106;SDS011;58763;47.982;11.516;2022-07-29T02:55:51;1.98;;;0.90;;
71106;SDS011;58763;47.982;11.516;2022-07-29T02:58:25;2.10;;;0.98;;
71106;SDS011;58763;47.982;11.516;2022-07-29T03:00:57;3.42;;;1.10;;
71106;SDS011;58763;47.982;11.516;2022-07-29T03:03:27;3.33;;;1.20;;
71106;SDS011;58763;47.982;11.516;2022-07-29T03:06:02;2.83;;;1.15;;
71106;SDS011;58763;47.982;11.516;2022-07-29T03:08:29;2.53;;;1.00;;
71106;SDS011;58763;47.982;11.516;2022-07-29T03:10:56;3.15;;;1.10;;
71106;SDS011;58763;47.982;11.516;2022-07-29T03:13:22;3.20;;;1.20;;
71106;SDS011;58763;47.982;11.516;2022-07-29T03:15:48;3.05;;;1.40;;
71106;SDS011;58763;47.982;11.516;2022-07-29T03:18:15;2.55;;;1.10;;
71106;SDS011;58763;47.982;11.516;2022-07-29T03:20:40;2.65;;;1.15;;
71106;SDS011;58763;47.982;11.516;2022-07-29T03:23:07;3.85;;;1.38;;
71106;SDS011;58763;47.982;11.516;2022-07-29T03:25:33;2.38;;;1.10;;
71106;SDS011;58763;47.982;11.516;2022-07-29T03:27:59;2.80;;;1.38;;
71106;SDS011;58763;47.982;11.516;2022-07-29T03:30:24;2.55;;;1.33;;
71106;SDS011;58763;47.982;11.516;2022-07-29T03:32:50;2.65;;;1.33;;
71106;SDS011;58763;47.982;11.516;2022-07-29T03:35:16;3.22;;;1.33;;
71106;SDS011;58763;47.982;11.516;2022-07-29T03:37:43;3.13;;;1.50;;
71106;SDS011;58763;47.982;11.516;2022-07-29T03:40:09;3.22;;;1.70;;
71106;SDS011;58763;47.982;11.516;2022-07-29T03:42:36;3.15;;;1.50;;
71106;SDS011;58763;47.982;11.516;2022-07-29T03:45:05;3.60;;;1.52;;
71106;SDS011;58763;47.982;11.516;2022-07-29T03:47:35;3.10;;;1.40;;
71106;SDS011;58763;47.982;11.516;2022-07-29T03:50:05;2.78;;;1.60;;
71106;SDS011;58763;47.982;11.516;2022-07-29T03:52:32;2.78;;;1.60;;
71106;SDS011;58763;47.982;11.516;2022-07-29T03:54:59;4.55;;;1.80;;
71106;SDS011;58763;47.982;11.516;2022-07-29T03:57:24;4.40;;;1.80;;
71106;SDS011;58763;47.982;11.516;2022-07-29T03:59:53;2.63;;;1.50;;
71106;SDS011;58763;47.982;11.516;2022-07-29T04:02:19;3.72;;;1.70;;
71106;SDS011;58763;47.982;11.516;2022-07-29T04:04:46;4.35;;;1.70;;
71106;SDS011;58763;47.982;11.516;2022-07-29T04:07:12;3.28;;;1.55;;
71106;SDS011;58763;47.982;11.516;2022-07-29T04:09:38;2.80;;;1.60;;
71106;SDS011;58763;47.982;11.516;2022-07-29T04:12:03;3.47;;;1.70;;
71106;SDS011;58763;47.982;11.516;2022-07-29T04:14:30;4.50;;;1.58;;
71106;SDS011;58763;47.982;11.516;2022-07-29T04:16:57;3.50;;;1.55;;
71106;SDS011;58763;47.982;11.516;2022-07-29T04:19:22;3.38;;;1.60;;
71106;SDS011;58763;47.982;11.516;2022-07-29T04:21:47;2.63;;;1.38;;
71106;SDS011;58763;47.982;11.516;2022-07-29T04:24:13;3.45;;;1.77;;
71106;SDS011;58763;47.982;11.516;2022-07-29T04:26:38;2.95;;;1.50;;
71106;SDS011;58763;47.982;11.516;2022-07-29T04:29:04;2.63;;;1.42;;
71106;SDS011;58763;47.982;11.516;2022-07-29T04:31:29;4.45;;;2.13;;
71106;SDS011;58763;47.982;11.516;2022-07-29T04:33:55;5.20;;;1.55;;
71106;SDS011;58763;47.982;11.516;2022-07-29T04:36:20;2.97;;;1.70;;
71106;SDS011;58763;47.982;11.516;2022-07-29T04:38:45;3.90;;;1.55;;
71106;SDS011;58763;47.982;11.516;2022-07-29T04:41:11;3.30;;;1.50;;
71106;SDS011;58763;47.982;11.516;2022-07-29T04:43:36;2.80;;;1.40;;
71106;SDS011;58763;47.982;11.516;2022-07-29T04:46:02;3.15;;;1.50;;
71106;SDS011;58763;47.982;11.516;2022-07-29T04:48:28;2.88;;;1.50;;
71106;SDS011;58763;47.982;11.516;2022-07-29T04:50:54;3.38;;;1.63;;
71106;SDS011;58763;47.982;11.516;2022-07-29T04:53:20;3.72;;;1.77;;
71106;SDS011;58763;47.982;11.516;2022-07-29T04:55:46;2.78;;;1.58;;
71106;SDS011;58763;47.982;11.516;2022-07-29T04:58:11;2.92;;;1.40;;
71106;SDS011;58763;47.982;11.516;2022-07-29T05:00:37;2.85;;;1.60;;
71106;SDS011;58763;47.982;11.516;2022-07-29T05:03:03;2.95;;;1.50;;
71106;SDS011;58763;47.982;11.516;2022-07-29T05:05:28;3.28;;;1.52;;
71106;SDS011;58763;47.982;11.516;2022-07-29T05:07:55;4.53;;;1.70;;
71106;SDS011;58763;47.982;11.516;2022-07-29T05:10:21;4.28;;;1.58;;
71106;SDS011;58763;47.982;11.516;2022-07-29T05:12:47;3.25;;;1.42;;
71106;SDS011;58763;47.982;11.516;2022-07-29T05:15:12;3.63;;;1.50;;
71106;SDS011;58763;47.982;11.516;2022-07-29T05:17:38;3.20;;;1.60;;
71106;SDS011;58763;47.982;11.516;2022-07-29T05:20:04;4.68;;;1.48;;
71106;SDS011;58763;47.982;11.516;2022-07-29T05:22:30;2.95;;;1.50;;
71106;SDS011;58763;47.982;11.516;2022-07-29T05:24:55;2.75;;;1.42;;
71106;SDS011;58763;47.982;11.516;2022-07-29T05:27:21;3.80;;;1.65;;
71106;SDS011;58763;47.982;11.516;2022-07-29T05:29:46;3.55;;;1.67;;
71106;SDS011;58763;47.982;11.516;2022-07-29T05:32:12;3.75;;;1.38;;
71106;SDS011;58763;47.982;11.516;2022-07-29T05:34:37;2.72;;;1.35;;
71106;SDS011;58763;47.982;11.516;2022-07-29T05:37:03;3.65;;;1.42;;
71106;SDS011;58763;47.982;11.516;2022-07-29T05:39:28;3.67;;;1.80;;
71106;SDS011;58763;47.982;11.516;2022-07-29T05:41:54;3.95;;;1.65;;
71106;SDS011;58763;47.982;11.516;2022-07-29T05:44:19;4.05;;;1.40;;
71106;SDS011;58763;47.982;11.516;2022-07-29T05:46:44;3.03;;;1.60;;
71106;SDS011;58763;47.982;11.516;2022-07-29T05:49:10;2.90;;;1.50;;
71106;SDS011;58763;47.982;11.516;2022-07-29T05:51:35;5.63;;;1.70;;
71106;SDS011;58763;47.982;11.516;2022-07-29T05:54:01;3.90;;;1.40;;
71106;SDS011;58763;47.982;11.516;2022-07-29T05:56:27;3.08;;;1.52;;
71106;SDS011;58763;47.982;11.516;2022-07-29T05:58:52;3.55;;;1.50;;
71106;SDS011;58763;47.982;11.516;2022-07-29T06:01:20;2.92;;;1.60;;
71106;SDS011;58763;47.982;11.516;2022-07-29T06:03:45;4.18;;;1.40;;
71106;SDS011;58763;47.982;11.516;2022-07-29T06:06:11;3.72;;;1.67;;
71106;SDS011;58763;47.982;11.516;2022-07-29T06:08:37;2.90;;;1.48;;
71106;SDS011;58763;47.982;11.516;2022-07-29T06:11:03;3.78;;;1.77;;
71106;SDS011;58763;47.982;11.516;2022-07-29T06:13:29;3.15;;;1.50;;
71106;SDS011;58763;47.982;11.516;2022-07-29T06:15:55;3.33;;;1.20;;
71106;SDS011;58763;47.982;11.516;2022-07-29T06:18:20;2.97;;;1.40;;
71106;SDS011;58763;47.982;11.516;2022-07-29T06:20:49;2.85;;;1.55;;
71106;SDS011;58763;47.982;11.516;2022-07-29T06:23:16;2.30;;;1.20;;
71106;SDS011;58763;47.982;11.516;2022-07-29T06:25:42;2.67;;;1.40;;
71106;SDS011;58763;47.982;11.516;2022-07-29T06:28:07;3.95;;;1.40;;
71106;SDS011;58763;47.982;11.516;2022-07-29T06:30:33;3.55;;;1.40;;
71106;SDS011;58763;47.982;11.516;2022-07-29T06:32:58;2.58;;;1.33;;
71106;SDS011;58763;47.982;11.516;2022-07-29T06:35:25;2.58;;;1.30;;
71106;SDS011;58763;47.982;11.516;2022-07-29T06:37:50;2.30;;;1.20;;
71106;SDS011;58763;47.982;11.516;2022-07-29T06:40:16;3.22;;;1.27;;
71106;SDS011;58763;47.982;11.516;2022-07-29T06:43:00;2.47;;;1.30;;
71106;SDS011;58763;47.982;11.516;2022-07-29T06:45:26;2.75;;;1.38;;
71106;SDS011;58763;47.982;11.516;2022-07-29T06:47:51;4.38;;;1.42;;
71106;SDS011;58763;47.982;11.516;2022-07-29T06:50:17;3.97;;;1.27;;
71106;SDS011;58763;47.982;11.516;2022-07-29T06:52:42;2.45;;;1.10;;
71106;SDS011;58763;47.982;11.516;2022-07-29T06:55:08;2.78;;;1.30;;
71106;SDS011;58763;47.982;11.516;2022-07-29T06:57:33;3.40;;;1.45;;
71106;SDS011;58763;47.982;11.516;2022-07-29T06:59:59;4.95;;;1.58;;
71106;SDS011;58763;47.982;11.516;2022-07-29T07:02:25;2.55;;;1.20;;
71106;SDS011;58763;47.982;11.516;2022-07-29T07:04:50;3.28;;;1.40;;
71106;SDS011;58763;47.982;11.516;2022-07-29T07:07:16;2.47;;;1.17;;
71106;SDS011;58763;47.982;11.516;2022-07-29T07:09:41;2.60;;;1.25;;
71106;SDS011;58763;47.982;11.516;2022-07-29T07:12:06;3.42;;;1.25;;
71106;SDS011;58763;47.982;11.516;2022-07-29T07:14:32;3.42;;;1.15;;
71106;SDS011;58763;47.982;11.516;2022-07-29T07:16:58;2.35;;;1.13;;
71106;SDS011;58763;47.982;11.516;2022-07-29T07:19:25;3.17;;;1.20;;
71106;SDS011;58763;47.982;11.516;2022-07-29T07:21:54;3.60;;;1.40;;
71106;SDS011;58763;47.982;11.516;2022-07-29T07:24:20;2.55;;;1.10;;
71106;SDS011;58763;47.982;11.516;2022-07-29T07:26:45;2.17;;;0.95;;
71106;SDS011;58763;47.982;11.516;2022-07-29T07:29:11;2.85;;;0.90;;
71106;SDS011;58763;47.982;11.516;2022-07-29T07:31:37;3.30;;;1.10;;
71106;SDS011;58763;47.982;11.516;2022-07-29T07:34:03;2.10;;;0.93;;
71106;SDS011;58763;47.982;11.516;2022-07-29T07:36:30;3.38;;;1.08;;
71106;SDS011;58763;47.982;11.516;2022-07-29T07:38:56;2.22;;;0.85;;
71106;SDS011;58763;47.982;11.516;2022-07-29T07:41:21;1.95;;;0.98;;
71106;SDS011;58763;47.982;11.516;2022-07-29T07:43:47;2.72;;;1.00;;
71106;SDS011;58763;47.982;11.516;2022-07-29T07:46:13;3.35;;;1.00;;
71106;SDS011;58763;47.982;11.516;2022-07-29T07:48:39;3.55;;;1.10;;
71106;SDS011;58763;47.982;11.516;2022-07-29T07:51:05;1.90;;;0.88;;
71106;SDS011;58763;47.982;11.516;2022-07-29T07:53:30;2.08;;;1.00;;
71106;SDS011;58763;47.982;11.516;2022-07-29T07:55:55;2.70;;;1.20;;
71106;SDS011;58763;47.982;11.516;2022-07-29T07:58:21;3.63;;;1.00;;
71106;SDS011;58763;47.982;11.516;2022-07-29T08:00:46;3.22;;;0.93;;
71106;SDS011;58763;47.982;11.516;2022-07-29T08:03:12;2.60;;;1.05;;
71106;SDS011;58763;47.982;11.516;2022-07-29T08:05:39;2.13;;;1.00;;
71106;SDS011;58763;47.982;11.516;2022-07-29T08:08:05;1.50;;;0.70;;
71106;SDS011;58763;47.982;11.516;2022-07-29T08:10:30;2.10;;;1.00;;
71106;SDS011;58763;47.982;11.516;2022-07-29T08:13:14;2.92;;;1.05;;
71106;SDS011;58763;47.982;11.516;2022-07-29T08:15:39;2.88;;;0.98;;
71106;SDS011;58763;47.982;11.516;2022-07-29T08:18:06;2.10;;;1.00;;
71106;SDS011;58763;47.982;11.516;2022-07-29T08:20:32;2.22;;;1.05;;
71106;SDS011;58763;47.982;11.516;2022-07-29T08:23:00;1.90;;;1.00;;
71106;SDS011;58763;47.982;11.516;2022-07-29T08:25:26;2.50;;;1.27;;
71106;SDS011;58763;47.982;11.516;2022-07-29T08:27:52;3.38;;;1.13;;
71106;SDS011;58763;47.982;11.516;2022-07-29T08:30:17;2.33;;;1.10;;
71106;SDS011;58763;47.982;11.516;2022-07-29T08:32:43;2.33;;;1.20;;
71106;SDS011;58763;47.982;11.516;2022-07-29T08:35:08;2.15;;;1.00;;
71106;SDS011;58763;47.982;11.516;2022-07-29T08:37:34;2.80;;;1.05;;
71106;SDS011;58763;47.982;11.516;2022-07-29T08:39:59;2.38;;;1.10;;
71106;SDS011;58763;47.982;11.516;2022-07-29T08:42:25;3.63;;;0.93;;
71106;SDS011;58763;47.982;11.516;2022-07-29T08:44:50;2.83;;;1.50;;
71106;SDS011;58763;47.982;11.516;2022-07-29T08:47:16;3.30;;;1.30;;
71106;SDS011;58763;47.982;11.516;2022-07-29T08:49:42;4.20;;;1.27;;
71106;SDS011;58763;47.982;11.516;2022-07-29T08:52:09;3.05;;;1.50;;
71106;SDS011;58763;47.982;11.516;2022-07-29T08:54:36;3.53;;;1.20;;
71106;SDS011;58763;47.982;11.516;2022-07-29T08:57:03;2.67;;;1.40;;
71106;SDS011;58763;47.982;11.516;2022-07-29T08:59:29;3.35;;;1.30;;
71106;SDS011;58763;47.982;11.516;2022-07-29T09:01:57;2.60;;;1.20;;
71106;SDS011;58763;47.982;11.516;2022-07-29T09:04:27;2.50;;;1.20;;
71106;SDS011;58763;47.982;11.516;2022-07-29T09:07:00;3.08;;;1.15;;
71106;SDS011;58763;47.982;11.516;2022-07-29T09:09:28;2.88;;;1.40;;
71106;SDS011;58763;47.982;11.516;2022-07-29T09:11:54;5.03;;;1.50;;
71106;SDS011;58763;47.982;11.516;2022-07-29T09:14:19;3.22;;;1.20;;
71106;SDS011;58763;47.982;11.516;2022-07-29T09:16:49;2.70;;;1.35;;
71106;SDS011;58763;47.982;11.516;2022-07-29T09:19:38;3.97;;;1.50;;
71106;SDS011;58763;47.982;11.516;2022-07-29T09:22:05;4.78;;;1.50;;
71106;SDS011;58763;47.982;11.516;2022-07-29T09:24:39;3.28;;;1.45;;
71106;SDS011;58763;47.982;11.516;2022-07-29T09:29:43;3.55;;;1.60;;
71106;SDS011;58763;47.982;11.516;2022-07-29T09:32:09;2.85;;;1.58;;
71106;SDS011;58763;47.982;11.516;2022-07-29T09:34:35;5.18;;;1.80;;
71106;SDS011;58763;47.982;11.516;2022-07-29T09:37:01;4.45;;;1.70;;
71106;SDS011;58763;47.982;11.516;2022-07-29T09:39:34;5.22;;;2.20;;
71106;SDS011;58763;47.982;11.516;2022-07-29T09:42:05;4.25;;;2.20;;
71106;SDS011;58763;47.982;11.516;2022-07-29T09:47:40;5.15;;;1.77;;
71106;SDS011;58763;47.982;11.516;2022-07-29T09:50:07;6.53;;;2.28;;
71106;SDS011;58763;47.982;11.516;2022-07-29T09:52:41;3.13;;;1.90;;
71106;SDS011;58763;47.982;11.516;2022-07-29T09:55:10;4.50;;;1.80;;
71106;SDS011;58763;47.982;11.516;2022-07-29T09:57:36;3.88;;;2.00;;
71106;SDS011;58763;47.982;11.516;2022-07-29T10:00:05;4.15;;;2.13;;
71106;SDS011;58763;47.982;11.516;2022-07-29T10:02:34;3.78;;;1.90;;
71106;SDS011;58763;47.982;11.516;2022-07-29T10:05:01;3.17;;;1.60;;
71106;SDS011;58763;47.982;11.516;2022-07-29T10:07:48;3.20;;;1.60;;
71106;SDS011;58763;47.982;11.516;2022-07-29T10:12:48;3.60;;;1.92;;
71106;SDS011;58763;47.982;11.516;2022-07-29T10:15:22;4.22;;;2.22;;
71106;SDS011;58763;47.982;11.516;2022-07-29T10:17:49;4.05;;;2.10;;
71106;SDS011;58763;47.982;11.516;2022-07-29T10:20:16;3.53;;;1.90;;
71106;SDS011;58763;47.982;11.516;2022-07-29T10:22:42;4.32;;;2.00;;
71106;SDS011;58763;47.982;11.516;2022-07-29T10:25:09;3.70;;;2.03;;
71106;SDS011;58763;47.982;11.516;2022-07-29T10:27:35;3.70;;;2.20;;
71106;SDS011;58763;47.982;11.516;2022-07-29T10:30:02;3.38;;;2.13;;
71106;SDS011;58763;47.982;11.516;2022-07-29T10:40:57;3.90;;;1.85;;
71106;SDS011;58763;47.982;11.516;2022-07-29T10:43:54;3.90;;;1.75;;
71106;SDS011;58763;47.982;11.516;2022-07-29T10:46:35;3.13;;;1.85;;
71106;SDS011;58763;47.982;11.516;2022-07-29T10:49:12;3.58;;;1.80;;
71106;SDS011;58763;47.982;11.516;2022-07-29T10:54:42;3.45;;;1.85;;
71106;SDS011;58763;47.982;11.516;2022-07-29T10:59:41;4.30;;;2.10;;
71106;SDS011;58763;47.982;11.516;2022-07-29T11:07:32;4.45;;;1.75;;
71106;SDS011;58763;47.982;11.516;2022-07-29T11:15:04;3.40;;;1.80;;
71106;SDS011;58763;47.982;11.516;2022-07-29T11:20:35;3.30;;;1.83;;
71106;SDS011;58763;47.982;11.516;2022-07-29T11:23:17;4.63;;;1.60;;
71106;SDS011;58763;47.982;11.516;2022-07-29T11:25:42;4.45;;;1.73;;
71106;SDS011;58763;47.982;11.516;2022-07-29T11:28:16;2.60;;;1.50;;
71106;SDS011;58763;47.982;11.516;2022-07-29T11:30:53;3.42;;;1.83;;
71106;SDS011;58763;47.982;11.516;2022-07-29T11:33:32;3.17;;;1.48;;
71106;SDS011;58763;47.982;11.516;2022-07-29T11:36:08;3.85;;;1.80;;
71106;SDS011;58763;47.982;11.516;2022-07-29T11:38:38;3.38;;;1.90;;
71106;SDS011;58763;47.982;11.516;2022-07-29T11:43:45;4.45;;;2.03;;
71106;SDS011;58763;47.982;11.516;2022-07-29T11:48:40;4.30;;;2.00;;
71106;SDS011;58763;47.982;11.516;2022-07-29T11:51:10;3.20;;;1.70;;
71106;SDS011;58763;47.982;11.516;2022-07-29T11:53:39;3.22;;;1.60;;
71106;SDS011;58763;47.982;11.516;2022-07-29T11:56:07;4.57;;;1.85;;
71106;SDS011;58763;47.982;11.516;2022-07-29T11:58:34;3.53;;;1.70;;
71106;SDS011;58763;47.982;11.516;2022-07-29T12:01:00;4.25;;;1.75;;
71106;SDS011;58763;47.982;11.516;2022-07-29T12:03:26;4.05;;;1.58;;
71106;SDS011;58763;47.982;11.516;2022-07-29T12:05:53;4.32;;;1.67;;
71106;SDS011;58763;47.982;11.516;2022-07-29T12:08:20;3.97;;;1.70;;
71106;SDS011;58763;47.982;11.516;2022-07-29T12:10:48;4.75;;;1.70;;
71106;SDS011;58763;47.982;11.516;2022-07-29T12:13:16;4.53;;;1.75;;
71106;SDS011;58763;47.982;11.516;2022-07-29T12:15:51;3.47;;;1.70;;
71106;SDS011;58763;47.982;11.516;2022-07-29T12:18:18;4.45;;;1.90;;
71106;SDS011;58763;47.982;11.516;2022-07-29T12:20:45;4.10;;;1.40;;
71106;SDS011;58763;47.982;11.516;2022-07-29T12:23:12;3.13;;;1.40;;
71106;SDS011;58763;47.982;11.516;2022-07-29T12:25:38;3.17;;;1.70;;
71106;SDS011;58763;47.982;11.516;2022-07-29T12:28:12;4.03;;;1.40;;
71106;SDS011;58763;47.982;11.516;2022-07-29T12:33:12;3.20;;;1.77;;
71106;SDS011;58763;47.982;11.516;2022-07-29T12:35:39;3.83;;;1.90;;
71106;SDS011;58763;47.982;11.516;2022-07-29T12:38:05;4.60;;;1.52;;
71106;SDS011;58763;47.982;11.516;2022-07-29T12:40:31;4.20;;;1.70;;
71106;SDS011;58763;47.982;11.516;2022-07-29T12:43:06;2.47;;;1.20;;
71106;SDS011;58763;47.982;11.516;2022-07-29T12:45:34;2.97;;;1.63;;
71106;SDS011;58763;47.982;11.516;2022-07-29T12:48:00;3.08;;;1.45;;
71106;SDS011;58763;47.982;11.516;2022-07-29T12:50:26;3.40;;;1.55;;
71106;SDS011;58763;47.982;11.516;2022-07-29T12:52:51;2.80;;;1.33;;
71106;SDS011;58763;47.982;11.516;2022-07-29T12:58:05;2.58;;;1.42;;
71106;SDS011;58763;47.982;11.516;2022-07-29T13:00:32;3.15;;;1.63;;
71106;SDS011;58763;47.982;11.516;2022-07-29T13:02:58;2.80;;;1.40;;
71106;SDS011;58763;47.982;11.516;2022-07-29T13:05:38;3.00;;;1.70;;
71106;SDS011;58763;47.982;11.516;2022-07-29T13:08:14;3.50;;;1.50;;
71106;SDS011;58763;47.982;11.516;2022-07-29T13:10:41;3.33;;;1.60;;
71106;SDS011;58763;47.982;11.516;2022-07-29T13:13:11;3.50;;;1.58;;
71106;SDS011;58763;47.982;11.516;2022-07-29T13:15:42;3.90;;;1.80;;
71106;SDS011;58763;47.982;11.516;2022-07-29T13:20:53;3.60;;;1.58;;
71106;SDS011;58763;47.982;11.516;2022-07-29T13:23:19;2.63;;;1.50;;
71106;SDS011;58763;47.982;11.516;2022-07-29T13:25:44;3.75;;;1.95;;
71106;SDS011;58763;47.982;11.516;2022-07-29T13:28:10;4.03;;;1.70;;
71106;SDS011;58763;47.982;11.516;2022-07-29T13:30:36;3.40;;;1.80;;
71106;SDS011;58763;47.982;11.516;2022-07-29T13:33:02;4.05;;;1.95;;
71106;SDS011;58763;47.982;11.516;2022-07-29T13:35:28;4.10;;;1.67;;
71106;SDS011;58763;47.982;11.516;2022-07-29T13:37:54;3.78;;;1.60;;
71106;SDS011;58763;47.982;11.516;2022-07-29T13:40:20;3.47;;;1.50;;
71106;SDS011;58763;47.982;11.516;2022-07-29T13:42:45;3.30;;;1.80;;
71106;SDS011;58763;47.982;11.516;2022-07-29T13:45:11;3.55;;;1.75;;
71106;SDS011;58763;47.982;11.516;2022-07-29T13:47:36;3.08;;;1.80;;
71106;SDS011;58763;47.982;11.516;2022-07-29T13:50:03;3.90;;;1.80;;
71106;SDS011;58763;47.982;11.516;2022-07-29T13:52:29;4.75;;;2.17;;
71106;SDS011;58763;47.982;11.516;2022-07-29T13:54:55;4.35;;;1.98;;
71106;SDS011;58763;47.982;11.516;2022-07-29T13:57:20;4.85;;;2.05;;
71106;SDS011;58763;47.982;11.516;2022-07-29T13:59:46;3.97;;;2.20;;
71106;SDS011;58763;47.982;11.516;2022-07-29T14:02:11;3.65;;;1.90;;
71106;SDS011;58763;47.982;11.516;2022-07-29T14:04:37;3.58;;;1.83;;
71106;SDS011;58763;47.982;11.516;2022-07-29T14:07:03;4.03;;;1.80;;
71106;SDS011;58763;47.982;11.516;2022-07-29T14:09:29;3.90;;;2.10;;
71106;SDS011;58763;47.982;11.516;2022-07-29T14:11:55;3.30;;;1.70;;
71106;SDS011;58763;47.982;11.516;2022-07-29T14:14:21;5.10;;;1.90;;
71106;SDS011;58763;47.982;11.516;2022-07-29T14:16:46;4.55;;;1.90;;
71106;SDS011;58763;47.982;11.516;2022-07-29T14:19:12;3.72;;;1.80;;
71106;SDS011;58763;47.982;11.516;2022-07-29T14:21:38;4.47;;;1.88;;
71106;SDS011;58763;47.982;11.516;2022-07-29T14:24:04;6.50;;;1.88;;
71106;SDS011;58763;47.982;11.516;2022-07-29T14:26:30;3.95;;;1.85;;
71106;SDS011;58763;47.982;11.516;2022-07-29T14:28:56;3.97;;;2.13;;
71106;SDS011;58763;47.982;11.516;2022-07-29T14:31:21;4.47;;;2.20;;
71106;SDS011;58763;47.982;11.516;2022-07-29T14:33:46;3.13;;;1.95;;
71106;SDS011;58763;47.982;11.516;2022-07-29T14:36:12;3.58;;;1.65;;
71106;SDS011;58763;47.982;11.516;2022-07-29T14:38:38;3.50;;;1.85;;
71106;SDS011;58763;47.982;11.516;2022-07-29T14:41:04;4.05;;;1.85;;
71106;SDS011;58763;47.982;11.516;2022-07-29T14:43:29;3.50;;;1.90;;
71106;SDS011;58763;47.982;11.516;2022-07-29T14:45:55;3.17;;;1.83;;
71106;SDS011;58763;47.982;11.516;2022-07-29T14:48:20;3.08;;;1.80;;
71106;SDS011;58763;47.982;11.516;2022-07-29T14:50:46;4.47;;;1.88;;
71106;SDS011;58763;47.982;11.516;2022-07-29T14:53:11;4.22;;;1.67;;
71106;SDS011;58763;47.982;11.516;2022-07-29T14:55:38;5.00;;;1.48;;
71106;SDS011;58763;47.982;11.516;2022-07-29T14:58:04;3.25;;;1.90;;
71106;SDS011;58763;47.982;11.516;2022-07-29T15:00:29;3.58;;;1.70;;
71106;SDS011;58763;47.982;11.516;2022-07-29T15:02:57;3.78;;;1.70;;
71106;SDS011;58763;47.982;11.516;2022-07-29T15:05:24;2.90;;;1.50;;
71106;SDS011;58763;47.982;11.516;2022-07-29T15:07:50;3.25;;;1.60;;
71106;SDS011;58763;47.982;11.516;2022-07-29T15:10:15;2.88;;;1.50;;
71106;SDS011;58763;47.982;11.516;2022-07-29T15:12:40;3.33;;;1.50;;
71106;SDS011;58763;47.982;11.516;2022-07-29T15:15:06;2.95;;;1.50;;
71106;SDS011;58763;47.982;11.516;2022-07-29T15:17:32;2.40;;;1.30;;
71106;SDS011;58763;47.982;11.516;2022-07-29T15:19:57;5.25;;;1.70;;
71106;SDS011;58763;47.982;11.516;2022-07-29T15:22:23;2.90;;;1.70;;
71106;SDS011;58763;47.982;11.516;2022-07-29T15:24:48;5.43;;;1.70;;
71106;SDS011;58763;47.982;11.516;2022-07-29T15:27:14;2.80;;;1.60;;
71106;SDS011;58763;47.982;11.516;2022-07-29T15:29:40;2.88;;;1.50;;
71106;SDS011;58763;47.982;11.516;2022-07-29T15:32:06;4.30;;;1.80;;
71106;SDS011;58763;47.982;11.516;2022-07-29T15:34:32;3.42;;;1.67;;
71106;SDS011;58763;47.982;11.516;2022-07-29T15:36:58;2.88;;;1.50;;